Time;durP1;ratioP1;P1;durP2;ratioP2;P2;SDS_P1;SDS_P2;PMS_P1;PMS_P2;Temp;Humidity;BMP_temperature;BMP_pressure;BME280_temperature;BME280_humidity;BME280_pressure;Samples;Min_cycle;Max_cycle;Signal;HPM_P1;HPM_P2
2022/06/17 00:01:42;;;;;;;1.87;1.30;;;23.70;38.40;;;24.27;28.71;99267.41;4983358;28;107459;-82
2022/06/17 00:04:09;;;;;;;1.33;1.20;;;23.70;38.50;;;24.27;28.99;99275.06;4988746;28;107074;-82
2022/06/17 00:06:50;;;;;;;1.20;1.10;;;23.70;38.50;;;24.23;28.71;99287.16;4977587;28;124003;-82
2022/06/17 00:09:20;;;;;;;1.50;1.20;;;23.70;38.60;;;24.23;28.76;99287.16;4989476;28;122806;-82
2022/06/17 00:11:47;;;;;;;1.13;1.03;;;23.70;38.80;;;24.22;29.03;99294.00;4977456;28;109165;-82
2022/06/17 00:14:25;;;;;;;4.83;1.20;;;23.60;38.60;;;24.20;28.91;99289.94;4989205;28;108326;-82
2022/06/17 00:16:51;;;;;;;1.23;1.13;;;23.60;38.70;;;24.17;29.12;99283.06;4959579;28;123709;-82
2022/06/17 00:19:19;;;;;;;1.50;1.40;;;23.60;38.80;;;24.15;28.91;99276.19;4975543;28;124359;-82
2022/06/17 00:21:50;;;;;;;1.37;1.10;;;23.60;38.80;;;24.10;28.84;99277.38;4969980;28;110040;-82
2022/06/17 00:24:23;;;;;;;1.30;1.10;;;23.60;38.90;;;24.09;29.13;99284.22;4986274;28;109664;-82
2022/06/17 00:26:51;;;;;;;1.50;1.40;;;23.50;39.00;;;24.08;29.09;99288.25;4978320;28;123873;-82
2022/06/17 00:29:22;;;;;;;1.30;1.13;;;23.50;39.10;;;24.06;29.31;99278.56;5002118;28;123780;-83
2022/06/17 00:31:49;;;;;;;1.47;1.20;;;23.50;39.20;;;24.05;29.31;99288.22;4981725;28;109652;-82
2022/06/17 00:34:16;;;;;;;1.47;1.37;;;23.50;39.30;;;24.03;29.49;99278.13;4977296;28;108039;-83
2022/06/17 00:36:44;;;;;;;1.60;1.30;;;23.50;39.60;;;24.02;29.67;99279.34;4978838;28;124059;-83
2022/06/17 00:39:18;;;;;;;1.33;1.23;;;23.50;39.60;;;24.00;29.44;99283.75;4980336;28;123643;-83
2022/06/17 00:41:49;;;;;;;1.53;1.20;;;23.50;39.70;;;23.97;29.68;99284.53;4983679;28;109211;-81
2022/06/17 00:44:48;;;;;;;1.67;1.30;;;23.40;39.80;;;23.91;29.57;99294.53;5003655;28;109037;-81
2022/06/17 00:47:24;;;;;;;1.40;1.30;;;23.40;39.80;;;23.87;29.58;99299.38;4974831;28;124767;-81
2022/06/17 00:50:00;;;;;;;1.67;1.40;;;23.30;39.90;;;23.84;29.85;99294.50;4983538;28;123924;-81
2022/06/17 00:53:09;;;;;;;4.90;1.37;;;23.30;39.90;;;23.75;29.89;99297.63;4977710;28;109175;-81
2022/06/17 00:56:02;;;;;;;1.40;1.20;;;23.20;39.90;;;23.72;30.00;99299.25;4975047;28;108826;-81
2022/06/17 00:58:53;;;;;;;2.00;1.40;;;23.20;40.00;;;23.69;30.14;99287.88;4966274;28;124749;-81
2022/06/17 01:01:22;;;;;;;1.57;1.40;;;23.20;40.20;;;23.67;30.09;99302.41;4984040;28;123818;-81
2022/06/17 01:03:53;;;;;;;2.77;1.47;;;23.10;40.30;;;23.64;30.20;99291.84;4984176;28;108672;-81
2022/06/17 01:06:24;;;;;;;1.70;1.33;;;23.10;40.50;;;23.60;30.50;99293.84;4988077;28;109004;-81
2022/06/17 01:11:49;;;;;;;1.70;1.33;;;23.00;40.60;;;23.51;30.65;99291.34;4972543;28;124609;-81
2022/06/17 01:14:19;;;;;;;1.57;1.33;;;23.00;40.80;;;23.48;30.62;99294.13;4986545;28;110014;-81
2022/06/17 01:16:47;;;;;;;4.43;1.50;;;22.90;40.80;;;23.45;30.63;99297.72;4989006;28;109299;-82
2022/06/17 01:19:40;;;;;;;2.27;1.40;;;22.90;40.90;;;23.42;30.86;99288.03;4983710;28;124030;-84
2022/06/17 01:22:25;;;;;;;1.40;1.20;;;22.90;41.00;;;23.38;30.81;99290.81;4977335;28;123755;-82
2022/06/17 01:25:14;;;;;;;1.30;1.20;;;22.90;41.10;;;23.34;30.93;99278.66;4982342;28;109054;-82
2022/06/17 01:27:48;;;;;;;1.40;1.30;;;22.80;41.20;;;23.31;31.10;99273.81;4979721;28;108834;-82
2022/06/17 01:30:44;;;;;;;1.73;1.30;;;22.80;41.30;;;23.28;31.41;99274.59;4981600;28;123808;-82
2022/06/17 01:33:37;;;;;;;1.30;1.20;;;22.70;41.30;;;23.24;31.16;99268.13;4976362;28;123691;-82
2022/06/17 01:36:26;;;;;;;1.43;1.20;;;22.70;41.50;;;23.20;31.27;99272.88;4976710;28;109666;-82
2022/06/17 01:38:56;;;;;;;1.40;1.30;;;22.70;41.60;;;23.18;31.29;99275.28;4989285;28;109084;-83
2022/06/17 01:41:30;;;;;;;2.03;1.20;;;22.60;41.70;;;23.17;31.41;99273.66;4976928;28;123790;-82
2022/06/17 01:44:04;;;;;;;1.40;1.30;;;22.60;41.80;;;23.16;31.72;99283.34;4989938;28;123716;-82
2022/06/17 01:46:44;;;;;;;1.40;1.30;;;22.60;41.90;;;23.14;31.45;99280.06;4988604;28;109634;-83
2022/06/17 01:49:19;;;;;;;2.00;1.40;;;22.60;42.10;;;23.12;31.77;99274.81;4977836;28;109403;-82
2022/06/17 01:52:02;;;;;;;1.30;1.20;;;22.60;42.20;;;23.10;31.94;99276.41;4987240;28;124527;-82
2022/06/17 01:54:35;;;;;;;2.33;1.60;;;22.50;42.20;;;23.08;31.78;99270.34;4979554;28;123815;-83
2022/06/17 01:57:05;;;;;;;1.93;1.40;;;22.50;42.30;;;23.06;31.79;99284.81;4982078;28;109822;-83
2022/06/17 01:59:42;;;;;;;2.07;1.60;;;22.50;42.40;;;23.06;32.02;99281.19;4980014;28;108814;-83
2022/06/17 02:02:13;;;;;;;2.80;1.50;;;22.50;42.50;;;23.03;32.02;99281.97;4987451;28;124180;-83
2022/06/17 02:04:46;;;;;;;2.17;1.30;;;22.50;42.60;;;23.01;31.92;99287.16;4980151;28;124242;-83
2022/06/17 02:07:41;;;;;;;1.47;1.30;;;22.40;42.60;;;22.96;32.15;99293.13;4981673;28;110008;-82
2022/06/17 02:10:08;;;;;;;1.90;1.40;;;22.40;43.40;;;22.93;32.37;99292.69;4973380;28;109257;-83
2022/06/17 02:12:35;;;;;;;1.83;1.30;;;22.40;42.90;;;22.89;32.39;99291.84;4981316;28;124090;-83
2022/06/17 02:15:01;;;;;;;2.00;1.30;;;22.30;42.90;;;22.89;32.40;99291.00;4984368;28;124364;-83
2022/06/17 02:17:32;;;;;;;1.13;1.03;;;22.30;43.00;;;22.86;32.32;99286.97;4985540;28;109143;-83
2022/06/17 02:19:59;;;;;;;1.50;1.40;;;22.30;43.10;;;22.84;32.90;99282.91;4974532;28;108114;-83
2022/06/17 02:22:30;;;;;;;1.30;1.20;;;22.30;43.30;;;22.81;32.59;99283.66;4981382;28;123820;-83
2022/06/17 02:25:10;;;;;;;2.13;1.30;;;22.30;43.30;;;22.76;32.54;99276.38;4985914;28;123915;-83
2022/06/17 02:27:38;;;;;;;1.40;1.20;;;22.20;43.30;;;22.73;32.75;99265.88;4990795;28;108979;-83
2022/06/17 02:30:08;;;;;;;1.40;1.30;;;22.20;43.40;;;22.67;32.74;99261.75;4985683;28;108386;-82
2022/06/17 02:32:36;;;;;;;1.20;1.10;;;22.10;43.30;;;22.60;32.85;99261.69;4986236;28;124530;-83
2022/06/17 02:36:10;;;;;;;1.40;1.30;;;22.10;43.50;;;22.52;32.82;99257.16;4984741;28;124121;-83
2022/06/17 02:38:38;;;;;;;1.70;1.30;;;22.10;43.60;;;22.48;32.93;99277.59;4908836;28;108785;-83
2022/06/17 02:41:12;;;;;;;1.63;1.53;;;22.00;43.70;;;22.48;33.30;99277.59;4900834;28;108344;-83
2022/06/17 02:43:56;;;;;;;1.20;1.10;;;21.90;43.80;;;22.47;33.16;99278.78;4969248;28;123287;-83
2022/06/17 02:46:29;;;;;;;1.57;1.30;;;21.90;43.90;;;22.46;33.31;99284.78;4982588;28;123857;-82
2022/06/17 02:49:00;;;;;;;1.20;1.10;;;21.90;44.10;;;22.45;33.33;99278.38;4982360;28;109359;-83
2022/06/17 02:51:31;;;;;;;1.33;1.23;;;21.90;44.20;;;22.46;33.42;99273.53;4978492;28;109338;-83
2022/06/17 02:53:59;;;;;;;1.70;1.20;;;21.90;44.40;;;22.43;33.76;99263.88;4983864;28;124264;-83
2022/06/17 02:56:30;;;;;;;1.70;1.27;;;21.90;44.40;;;22.41;33.35;99257.00;4975665;28;123880;-83
2022/06/17 02:59:14;;;;;;;4.10;1.30;;;21.80;44.40;;;22.39;33.90;99265.00;4977992;28;110120;-84
2022/06/17 03:01:42;;;;;;;1.90;1.40;;;21.80;44.50;;;22.38;33.86;99271.81;4984835;28;108909;-83
2022/06/17 03:04:23;;;;;;;1.53;1.30;;;21.80;44.70;;;22.33;33.85;99272.97;4985833;28;123602;-84
2022/06/17 03:06:50;;;;;;;1.30;1.17;;;21.80;44.70;;;22.30;33.78;99267.28;4978267;28;123966;-83
2022/06/17 03:09:24;;;;;;;1.37;1.27;;;21.70;44.70;;;22.28;33.84;99273.28;4975787;28;110027;-84
2022/06/17 03:12:01;;;;;;;1.67;1.57;;;21.70;44.90;;;22.26;33.77;99278.50;4981233;28;108951;-83
2022/06/17 03:14:34;;;;;;;1.80;1.60;;;21.70;45.00;;;22.25;33.94;99282.50;4975633;28;124131;-83
2022/06/17 03:17:05;;;;;;;1.87;1.20;;;21.70;45.20;;;22.25;34.17;99288.13;4984604;28;123790;-83
2022/06/17 03:19:35;;;;;;;3.57;1.50;;;21.70;45.30;;;22.24;34.10;99289.31;4970602;28;108091;-83
2022/06/17 03:22:05;;;;;;;1.30;1.20;;;21.70;45.40;;;22.23;34.33;99288.50;4980607;28;109170;-83
2022/06/17 03:24:44;;;;;;;1.47;1.30;;;21.60;45.40;;;22.23;34.53;99296.94;4985364;28;124848;-83
2022/06/17 03:27:20;;;;;;;1.47;1.37;;;21.60;45.40;;;22.21;34.26;99299.31;4979667;28;123920;-83
2022/06/17 03:29:49;;;;;;;2.07;1.40;;;21.60;45.50;;;22.20;34.41;99299.72;4984441;28;108972;-83
2022/06/17 03:32:28;;;;;;;1.33;1.10;;;21.60;45.60;;;22.19;34.26;99300.88;4985783;28;108855;-83
2022/06/17 03:34:55;;;;;;;1.30;1.20;;;21.60;45.70;;;22.17;34.64;99308.91;4971931;28;124525;-83
2022/06/17 03:37:38;;;;;;;2.13;1.60;;;21.60;45.80;;;22.15;34.55;99305.63;4978703;28;124040;-83
2022/06/17 03:40:23;;;;;;;1.87;1.40;;;21.60;45.90;;;22.13;35.02;99319.25;4983758;28;108936;-83
2022/06/17 03:43:05;;;;;;;1.47;1.20;;;21.50;46.00;;;22.13;34.64;99313.63;4985891;28;109801;-83
2022/06/17 03:45:48;;;;;;;1.63;1.50;;;21.50;46.10;;;22.12;35.11;99324.09;4977601;28;123010;-83
2022/06/17 03:48:27;;;;;;;1.40;1.27;;;21.50;46.90;;;22.12;34.88;99312.84;4974923;28;123785;-82
2022/06/17 03:50:54;;;;;;;1.53;1.37;;;21.50;46.30;;;22.13;35.12;99317.25;4984850;28;109229;-83
2022/06/17 03:53:35;;;;;;;2.30;1.50;;;21.50;46.40;;;22.13;34.87;99322.88;4981142;28;109819;-83
2022/06/17 03:56:10;;;;;;;2.23;1.50;;;21.50;46.50;;;22.15;35.09;99330.97;4979650;28;123871;-83
2022/06/17 03:58:39;;;;;;;1.50;1.40;;;21.50;46.50;;;22.11;35.03;99322.47;4984031;28;123526;-83
2022/06/17 04:01:34;;;;;;;1.70;1.57;;;21.50;46.60;;;22.10;35.22;99332.09;4991000;28;111032;-83
2022/06/17 04:04:21;;;;;;;1.70;1.60;;;21.60;46.80;;;22.14;35.37;99337.75;4980977;28;109320;-83
2022/06/17 04:06:54;;;;;;;1.93;1.50;;;21.50;46.90;;;22.18;35.31;99341.47;4978679;28;123116;-83
2022/06/17 04:09:28;;;;;;;2.57;1.53;;;21.60;47.00;;;22.19;35.61;99337.47;4981644;28;124269;-83
2022/06/17 04:12:04;;;;;;;1.30;1.17;;;21.60;47.10;;;22.18;35.32;99341.47;4971033;28;109180;-83
2022/06/17 04:14:51;;;;;;;1.60;1.40;;;21.60;47.20;;;22.14;35.77;99351.84;4975465;28;108645;-83
2022/06/17 04:17:39;;;;;;;1.80;1.50;;;21.60;47.20;;;22.13;35.62;99338.97;4988247;28;124077;-83
2022/06/17 04:20:15;;;;;;;2.27;1.60;;;21.60;47.30;;;22.14;35.87;99346.22;4979658;28;123931;-83
2022/06/17 04:22:46;;;;;;;1.63;1.20;;;21.60;47.50;;;22.14;35.95;99351.84;4985432;28;109229;-83
2022/06/17 04:25:23;;;;;;;1.30;1.20;;;21.60;47.60;;;22.16;36.06;99360.72;4984049;28;108693;-82
2022/06/17 04:27:59;;;;;;;1.80;1.60;;;21.60;47.70;;;22.17;35.74;99362.38;4958182;28;122990;-83
2022/06/17 04:30:38;;;;;;;2.43;1.47;;;21.60;47.70;;;22.18;36.01;99364.81;4980455;28;122547;-83
2022/06/17 04:33:47;;;;;;;1.60;1.37;;;21.60;47.70;;;22.17;35.54;99360.38;4978101;28;109684;-82
2022/06/17 04:36:21;;;;;;;1.30;1.20;;;21.60;47.60;;;22.18;35.67;99364.81;4984470;28;109163;-82
2022/06/17 04:39:05;;;;;;;2.60;1.30;;;21.60;47.60;;;22.19;35.85;99380.53;4984519;28;124693;-83
2022/06/17 04:41:36;;;;;;;1.30;1.20;;;21.60;47.60;;;22.21;35.63;99382.97;4994351;28;123699;-82
2022/06/17 04:44:05;;;;;;;1.87;1.60;;;21.60;47.60;;;22.22;35.96;99376.16;4965530;28;109546;-83
2022/06/17 04:47:05;;;;;;;1.47;1.37;;;21.60;47.60;;;22.22;35.52;99378.97;4960439;28;109010;-82
2022/06/17 04:49:36;;;;;;;2.07;1.37;;;21.60;47.60;;;22.22;36.03;99376.97;4965811;28;123382;-82
2022/06/17 04:52:08;;;;;;;1.50;1.40;;;21.60;47.70;;;22.23;35.71;99377.78;4982885;28;123957;-82
2022/06/17 04:54:36;;;;;;;1.77;1.53;;;21.60;47.80;;;22.24;36.18;99383.00;4994860;28;109234;-83
2022/06/17 04:57:04;;;;;;;2.03;1.30;;;21.60;47.80;;;22.24;35.98;99374.56;4983227;28;109556;-82
2022/06/17 04:59:40;;;;;;;2.83;1.50;;;21.60;47.80;;;22.28;35.86;99377.47;4977797;28;124492;-81
2022/06/17 05:02:17;;;;;;;2.70;1.50;;;21.70;48.00;;;22.30;35.98;99386.34;4996043;28;122927;-82
2022/06/17 05:04:48;;;;;;;1.40;1.23;;;21.70;48.00;;;22.27;35.93;99378.63;4982234;28;109110;-82
2022/06/17 05:07:17;;;;;;;1.40;1.17;;;21.80;47.90;;;22.23;36.12;99377.78;4980559;28;108996;-82
2022/06/17 05:09:51;;;;;;;1.60;1.40;;;21.70;47.80;;;22.23;36.15;99387.03;4973235;28;123171;-82
2022/06/17 05:12:38;;;;;;;4.47;2.20;;;21.60;47.70;;;22.22;36.03;99379.78;4975071;28;124454;-82
2022/06/17 05:15:16;;;;;;;2.73;1.60;;;21.70;47.80;;;22.24;35.80;99385.03;4984232;28;109164;-83
2022/06/17 05:17:43;;;;;;;1.60;1.40;;;21.60;47.80;;;22.27;36.00;99384.25;4966891;28;108404;-82
2022/06/17 05:20:27;;;;;;;2.60;1.77;;;21.70;47.90;;;22.29;36.05;99387.53;4983682;28;125123;-82
2022/06/17 05:23:05;;;;;;;1.63;1.40;;;21.70;47.80;;;22.30;35.61;99388.31;4974089;28;124213;-81
2022/06/17 05:25:36;;;;;;;2.03;1.57;;;21.70;47.80;;;22.33;35.74;99394.03;4987332;28;109141;-82
2022/06/17 05:28:06;;;;;;;1.50;1.30;;;21.70;47.90;;;22.38;35.84;99390.91;4978097;28;109031;-81
2022/06/17 05:30:37;;;;;;;2.57;1.30;;;21.70;47.80;;;22.42;35.89;99388.94;4982440;28;124262;-82
2022/06/17 05:33:04;;;;;;;2.30;1.50;;;21.80;47.80;;;22.47;35.65;99402.69;4970327;28;124157;-82
2022/06/17 05:35:31;;;;;;;1.60;1.30;;;21.80;47.80;;;22.49;35.39;99403.16;4982494;28;110580;-81
2022/06/17 05:37:58;;;;;;;2.20;1.83;;;21.80;47.70;;;22.56;35.48;99401.63;4973063;28;109963;-82
2022/06/17 05:40:26;;;;;;;2.43;1.70;;;21.90;47.80;;;22.58;35.29;99399.25;4975887;28;124101;-81
2022/06/17 05:42:53;;;;;;;1.93;1.40;;;21.90;47.60;;;22.61;35.54;99398.50;4974288;28;124240;-79
2022/06/17 05:45:27;;;;;;;2.13;1.63;;;21.90;47.60;;;22.63;35.20;99398.94;4993992;28;108757;-80
2022/06/17 05:47:53;;;;;;;2.90;1.33;;;22.00;47.60;;;22.66;35.08;99407.44;4985853;28;109268;-82
2022/06/17 05:50:23;;;;;;;3.23;1.67;;;22.00;48.30;;;22.74;35.07;99408.34;4979356;28;124227;-80
2022/06/17 05:52:55;;;;;;;3.53;1.67;;;22.10;47.70;;;22.80;35.49;99412.47;4973211;28;124078;-82
2022/06/17 05:55:25;;;;;;;6.03;1.83;;;22.10;47.60;;;22.76;35.47;99417.25;4985076;28;109561;-81
2022/06/17 05:57:52;;;;;;;1.87;1.60;;;22.10;47.70;;;22.75;35.44;99420.44;4978102;28;109404;-81
2022/06/17 06:00:19;;;;;;;5.33;1.57;;;22.10;47.70;;;22.80;35.37;99429.38;4989032;28;124202;-81
2022/06/17 06:02:46;;;;;;;3.37;1.70;;;22.20;47.70;;;22.85;35.35;99420.59;4984838;28;123547;-81
2022/06/17 06:05:17;;;;;;;2.30;1.67;;;22.20;47.70;;;22.91;35.14;99424.69;4981533;28;109087;-80
2022/06/17 06:07:44;;;;;;;1.50;1.30;;;22.20;47.80;;;23.00;35.24;99420.81;4985206;28;106934;-81
2022/06/17 06:10:11;;;;;;;2.10;1.70;;;22.30;47.80;;;23.07;35.42;99426.56;4974307;28;124501;-81
2022/06/17 06:15:44;;;;;;;2.40;1.70;;;22.40;47.90;;;23.24;35.27;99437.28;4984937;28;109852;-80
2022/06/17 06:18:14;;;;;;;2.20;1.50;;;22.60;48.00;;;23.29;35.21;99425.69;4971539;28;107603;-81
2022/06/17 06:20:41;;;;;;;5.60;1.90;;;22.60;48.00;;;23.36;35.30;99417.28;4985156;28;124188;-82
2022/06/17 06:23:09;;;;;;;4.90;1.80;;;22.70;47.90;;;23.43;35.01;99415.75;4975509;28;124028;-82
2022/06/17 06:25:36;;;;;;;2.47;1.63;;;22.70;47.70;;;23.47;34.97;99406.13;4991072;28;110472;-82
2022/06/17 06:28:10;;;;;;;1.73;1.47;;;22.80;47.80;;;23.55;34.93;99395.75;4962978;28;109712;-81
2022/06/17 06:30:37;;;;;;;2.93;2.23;;;22.90;47.80;;;23.59;34.88;99403.06;4997928;28;123186;-81
2022/06/17 06:33:04;;;;;;;3.67;1.77;;;22.90;47.70;;;23.59;34.98;99414.34;4980667;28;123594;-81
2022/06/17 06:35:35;;;;;;;5.00;1.60;;;22.90;47.70;;;23.63;34.82;99410.75;4981108;28;109279;-81
2022/06/17 06:38:04;;;;;;;2.57;1.97;;;23.00;47.80;;;23.62;34.89;99409.94;4974539;28;108049;-81
2022/06/17 06:40:32;;;;;;;4.73;1.57;;;23.00;47.70;;;23.62;34.88;99407.13;4971854;28;124299;-81
2022/06/17 06:42:58;;;;;;;3.40;1.87;;;23.00;47.70;;;23.68;34.98;99413.22;4973252;28;124069;-81
2022/06/17 06:45:33;;;;;;;2.70;1.43;;;23.00;47.70;;;23.75;34.76;99400.06;4987564;28;108961;-81
2022/06/17 06:48:04;;;;;;;2.03;1.60;;;23.10;47.60;;;23.83;34.73;99403.78;4959637;28;108037;-81
2022/06/17 06:50:33;;;;;;;1.87;1.30;;;23.20;47.40;;;23.94;34.54;99412.34;4959887;28;123503;-81
2022/06/17 06:52:59;;;;;;;2.60;1.43;;;23.20;47.40;;;24.02;34.27;99409.19;4973281;28;123072;-80
2022/06/17 06:55:27;;;;;;;3.93;1.50;;;23.30;47.20;;;24.11;34.19;99417.34;4976196;28;108874;-81
2022/06/17 06:58:00;;;;;;;2.10;1.73;;;23.40;47.20;;;24.18;34.13;99408.94;4978622;28;108571;-81
2022/06/17 07:00:37;;;;;;;3.37;1.50;;;23.50;47.10;;;24.27;33.84;99424.75;4988629;28;124291;-81
2022/06/17 07:03:04;;;;;;;1.43;1.30;;;23.50;46.90;;;24.36;33.85;99423.19;4978923;28;124030;-83
2022/06/17 07:05:34;;;;;;;1.80;1.43;;;23.60;46.80;;;24.45;33.99;99425.75;4976203;28;109043;-81
2022/06/17 07:08:01;;;;;;;3.20;1.37;;;23.70;46.80;;;24.53;33.63;99424.59;4977058;28;108748;-81
2022/06/17 07:10:33;;;;;;;1.87;1.50;;;23.80;46.70;;;24.58;33.45;99441.19;4971086;28;123617;-82
2022/06/17 07:13:03;;;;;;;2.67;1.87;;;23.90;46.60;;;24.64;33.42;99433.97;4974605;28;123954;-82
2022/06/17 07:15:30;;;;;;;2.90;1.80;;;24.00;46.60;;;24.66;33.38;99442.88;4980929;28;110211;-82
2022/06/17 07:18:04;;;;;;;3.13;1.63;;;24.00;46.20;;;24.68;33.13;99434.00;4977675;28;109897;-82
2022/06/17 07:20:38;;;;;;;2.00;1.60;;;24.00;46.10;;;24.75;33.12;99439.72;4988565;28;124129;-82
2022/06/17 07:23:07;;;;;;;1.90;1.63;;;24.00;46.10;;;24.84;33.12;99436.53;4971645;28;122594;-81
2022/06/17 07:25:34;;;;;;;1.40;1.30;;;24.00;46.10;;;24.95;33.09;99440.22;4987502;28;106965;-82
2022/06/17 07:28:02;;;;;;;2.20;1.70;;;24.10;46.10;;;25.02;33.33;99434.63;4991874;28;107893;-81
2022/06/17 07:30:32;;;;;;;1.70;1.50;;;24.30;46.10;;;25.07;32.91;99439.91;4990839;28;124192;-82
2022/06/17 07:33:00;;;;;;;1.90;1.53;;;24.30;46.40;;;25.11;33.00;99434.28;4986494;28;124235;-81
2022/06/17 07:35:28;;;;;;;1.97;1.43;;;24.40;46.00;;;25.17;32.72;99434.72;4979167;28;109412;-82
2022/06/17 07:40:43;;;;;;;1.80;1.50;;;24.50;45.80;;;25.30;32.58;99427.53;4975379;28;124204;-82
2022/06/17 07:43:09;;;;;;;1.80;1.33;;;24.60;45.90;;;25.33;32.47;99421.91;4989264;28;123225;-81
2022/06/17 07:45:36;;;;;;;1.83;1.63;;;24.70;45.90;;;25.38;32.69;99431.22;4981800;28;108957;-82
2022/06/17 07:48:04;;;;;;;2.43;1.67;;;24.70;45.80;;;25.37;32.28;99418.28;4986384;28;108523;-82
2022/06/17 07:50:33;;;;;;;1.93;1.60;;;24.70;45.60;;;25.38;32.34;99426.34;4980011;28;124105;-82
2022/06/17 07:53:03;;;;;;;2.00;1.80;;;24.70;45.70;;;25.44;32.77;99424.78;4971040;28;123529;-82
2022/06/17 07:55:29;;;;;;;3.23;1.60;;;24.80;45.70;;;25.52;32.28;99437.75;4978764;28;109726;-81
2022/06/17 07:57:56;;;;;;;2.10;1.70;;;24.80;45.70;;;25.60;32.59;99432.91;4980323;28;108950;-81
2022/06/17 08:00:36;;;;;;;9.07;2.60;;;24.90;45.70;;;25.64;32.74;99432.94;4981806;28;123075;-81
2022/06/17 08:03:04;;;;;;;2.13;1.87;;;24.90;45.70;;;25.65;32.30;99428.88;4994534;28;123503;-81
2022/06/17 08:05:33;;;;;;;2.90;2.17;;;23.90;44.70;;;25.66;32.15;99430.53;5001643;28;108620;-81
2022/06/17 08:08:03;;;;;;;3.97;2.10;;;25.00;45.60;;;25.70;32.48;99431.34;4988376;28;109390;-82
2022/06/17 08:10:33;;;;;;;2.77;2.10;;;25.00;45.60;;;25.70;32.46;99431.34;5005237;28;123190;-81
2022/06/17 08:13:06;;;;;;;2.00;1.80;;;25.10;45.50;;;25.70;32.31;99429.31;4996297;28;123659;-80
2022/06/17 08:15:35;;;;;;;3.27;2.50;;;25.10;45.50;;;25.73;32.49;99431.34;4999130;28;110093;-82
2022/06/17 08:18:03;;;;;;;1.50;1.30;;;25.10;45.50;;;25.78;32.39;99424.47;4997414;28;108434;-81
2022/06/17 08:20:33;;;;;;;1.77;1.57;;;25.10;45.60;;;25.84;32.33;99428.56;4993060;28;123804;-81
2022/06/17 08:23:03;;;;;;;2.43;1.77;;;25.10;45.60;;;25.89;32.56;99428.19;4985348;28;122678;-81
2022/06/17 08:25:32;;;;;;;2.30;1.63;;;25.20;45.50;;;25.93;32.19;99433.88;4972585;28;106229;-81
2022/06/17 08:28:03;;;;;;;2.20;1.90;;;25.30;45.40;;;25.98;32.38;99428.63;4992502;28;107718;-83
2022/06/17 08:30:35;;;;;;;1.60;1.50;;;25.30;45.30;;;26.03;31.79;99420.94;4980907;28;123454;-82
2022/06/17 08:33:03;;;;;;;1.90;1.70;;;25.30;45.20;;;26.07;32.23;99424.59;4992840;28;123350;-82
2022/06/17 08:35:47;;;;;;;2.50;1.70;;;25.40;45.10;;;26.10;31.69;99418.91;4988730;28;109556;-83
2022/06/17 08:38:19;;;;;;;3.77;2.33;;;25.40;44.90;;;26.11;31.30;99417.69;4975980;28;109395;-82
2022/06/17 08:41:00;;;;;;;5.23;2.50;;;25.40;44.50;;;26.10;31.54;99432.28;4982960;28;124616;-81
2022/06/17 08:44:10;;;;;;;2.20;1.90;;;25.50;44.30;;;26.05;31.32;99418.50;5003765;28;123939;-81
2022/06/17 08:46:50;;;;;;;2.20;1.70;;;25.40;44.20;;;26.03;31.40;99420.94;4984776;28;109757;-81
2022/06/17 08:49:56;;;;;;;2.90;1.60;;;25.40;43.80;;;26.04;31.12;99422.56;4969447;28;108834;-82
2022/06/17 08:52:47;;;;;;;4.17;2.37;;;25.40;43.50;;;26.09;30.85;99419.34;4984284;28;124117;-82
2022/06/17 08:55:40;;;;;;;4.00;2.33;;;25.50;43.60;;;26.09;30.16;99417.31;4978559;28;123954;-82
2022/06/17 08:58:51;;;;;;;2.27;1.77;;;25.50;43.40;;;26.11;30.61;99416.88;4973135;28;110031;-82
2022/06/17 09:01:45;;;;;;;4.07;2.50;;;25.50;43.00;;;26.14;30.23;99404.75;4986143;28;110374;-84
2022/06/17 09:04:36;;;;;;;2.83;2.07;;;25.50;42.90;;;26.18;30.25;99408.41;4971059;28;124124;-83
2022/06/17 09:07:31;;;;;;;2.87;2.30;;;25.60;42.80;;;26.21;30.39;99411.25;4981081;28;124269;-83
2022/06/17 09:10:32;;;;;;;6.60;2.00;;;25.60;42.50;;;26.22;30.25;99417.72;4975236;28;109017;-81
2022/06/17 09:13:20;;;;;;;2.37;2.10;;;25.60;42.30;;;26.21;30.23;99416.09;4995153;28;109529;-82
2022/06/17 09:16:03;;;;;;;3.30;1.93;;;25.70;42.20;;;26.25;29.82;99416.94;4980683;28;123904;-82
2022/06/17 09:18:40;;;;;;;3.53;2.03;;;25.70;42.00;;;26.28;29.76;99410.44;4982166;28;123812;-82
2022/06/17 09:21:18;;;;;;;4.20;2.20;;;25.70;42.10;;;26.32;29.45;99414.06;4977441;28;109634;-82
2022/06/17 09:23:46;;;;;;;3.77;2.03;;;25.70;41.40;;;26.33;29.31;99409.22;4990486;28;108373;-82
2022/06/17 09:26:29;;;;;;;2.13;1.60;;;25.70;41.50;;;26.33;29.16;99410.06;4979791;28;124069;-83
2022/06/17 09:29:12;;;;;;;2.50;1.87;;;25.70;41.40;;;26.36;29.45;99417.75;4975153;28;123867;-82
2022/06/17 09:31:50;;;;;;;2.50;1.80;;;25.80;41.40;;;26.40;29.23;99418.53;4987635;28;108960;-83
2022/06/17 09:34:40;;;;;;;2.20;1.70;;;27.80;42.80;;;26.41;29.69;99413.66;4993914;28;108072;-83
2022/06/17 09:37:33;;;;;;;2.10;1.60;;;25.80;41.30;;;26.41;29.08;99414.50;4976609;28;124002;-83
2022/06/17 09:40:10;;;;;;;2.53;1.77;;;25.90;41.30;;;26.42;29.36;99416.09;4973803;28;123734;-82
2022/06/17 09:43:07;;;;;;;5.37;2.17;;;25.80;41.10;;;26.40;28.94;99418.53;4976859;28;109098;-81
2022/06/17 09:45:47;;;;;;;2.80;2.03;;;25.90;40.90;;;26.42;29.15;99416.09;4980633;28;109072;-82
2022/06/17 09:48:42;;;;;;;1.97;1.60;;;25.80;41.00;;;26.42;28.84;99412.47;4986784;28;124336;-82
2022/06/17 09:51:33;;;;;;;2.23;1.70;;;25.90;40.90;;;26.45;29.11;99420.16;4994465;28;122958;-83
2022/06/17 09:54:09;;;;;;;1.30;1.20;;;25.90;40.90;;;26.50;28.96;99411.25;4978380;28;110002;-83
2022/06/17 09:57:01;;;;;;;2.27;2.00;;;26.00;41.00;;;26.53;29.23;99412.50;4987074;28;108406;-84
2022/06/17 09:59:41;;;;;;;1.60;1.40;;;26.00;40.60;;;26.58;29.09;99412.09;4994740;28;124061;-82
2022/06/17 10:02:29;;;;;;;1.60;1.50;;;26.00;41.40;;;26.64;29.05;99405.59;4993254;28;123756;-82
2022/06/17 10:04:57;;;;;;;2.90;1.70;;;26.10;40.90;;;26.69;28.90;99417.75;4995605;28;109607;-80
2022/06/17 10:07:51;;;;;;;2.57;1.70;;;26.10;41.00;;;26.71;28.76;99395.50;4978470;28;109018;-81
2022/06/17 10:11:16;;;;;;;3.17;1.73;;;26.10;41.40;;;26.74;29.01;99391.84;4993202;28;124560;-82
2022/06/17 10:14:16;;;;;;;3.20;1.97;;;26.20;40.50;;;26.75;28.80;99391.41;4956528;28;123584;-82
2022/06/17 10:20:18;;;;;;;1.70;1.60;;;26.20;39.90;;;26.79;28.15;99397.09;4997368;28;109456;-82
2022/06/17 10:23:12;;;;;;;1.97;1.60;;;26.20;39.80;;;26.78;28.07;99393.41;4987378;28;122768;-83
2022/06/17 10:25:47;;;;;;;3.00;1.63;;;26.30;39.10;;;26.79;27.35;99399.94;4975928;28;123101;-83
2022/06/17 10:29:04;;;;;;;1.57;1.47;;;26.20;38.70;;;26.79;27.53;99388.59;4978143;28;109358;-84
2022/06/17 10:31:40;;;;;;;1.70;1.50;;;26.30;38.80;;;26.85;27.93;99386.94;4988116;28;108630;-84
2022/06/17 10:34:32;;;;;;;1.53;1.37;;;26.30;39.00;;;26.90;27.76;99386.53;4981496;28;124024;-83
2022/06/17 10:37:03;;;;;;;2.70;1.80;;;26.40;39.10;;;26.94;27.54;99389.34;4975739;28;123691;-83
2022/06/17 10:39:33;;;;;;;2.60;2.07;;;26.40;38.60;;;26.96;27.59;99386.91;4983780;28;108635;-83
2022/06/17 10:42:01;;;;;;;2.00;1.63;;;26.40;38.80;;;27.02;27.25;99383.25;4984975;28;109089;-84
2022/06/17 10:44:30;;;;;;;2.27;1.67;;;26.40;38.90;;;27.06;27.59;99386.88;4991237;28;124315;-84
2022/06/17 10:47:27;;;;;;;1.70;1.33;;;26.50;38.80;;;27.11;27.83;99388.50;4991287;28;124189;-84
2022/06/17 10:49:59;;;;;;;1.50;1.30;;;26.60;38.80;;;27.17;27.25;99384.03;4988313;28;110203;-85
2022/06/17 10:52:42;;;;;;;1.87;1.70;;;26.60;38.80;;;27.21;27.50;99375.50;4990893;28;110597;-84
2022/06/17 10:55:22;;;;;;;1.83;1.60;;;26.60;38.40;;;27.26;27.45;99375.88;4987171;28;124035;-82
2022/06/17 10:58:16;;;;;;;2.27;2.07;;;26.70;38.50;;;27.34;27.08;99385.19;4975597;28;124531;-82
2022/06/17 11:01:11;;;;;;;2.10;1.60;;;26.70;38.30;;;27.41;26.86;99381.53;4992577;28;107523;-82
2022/06/17 11:03:39;;;;;;;1.60;1.40;;;26.80;38.30;;;27.46;26.55;99376.22;4975720;28;109211;-82